sensor_id;sensor_type;location;lat;lon;timestamp;temperature;humidity
71627;DHT22;59475;52.464;13.590;2023-04-01T00:00:32;9.02;96.78
71627;DHT22;59475;52.464;13.590;2023-04-01T00:02:57;9.02;96.74
71627;DHT22;59475;52.464;13.590;2023-04-01T00:05:23;9.00;96.71
71627;DHT22;59475;52.464;13.590;2023-04-01T00:07:49;9.00;96.75
71627;DHT22;59475;52.464;13.590;2023-04-01T00:10:16;9.03;96.74
71627;DHT22;59475;52.464;13.590;2023-04-01T00:12:41;9.05;96.73
71627;DHT22;59475;52.464;13.590;2023-04-01T00:15:10;9.06;96.72
71627;DHT22;59475;52.464;13.590;2023-04-01T00:17:35;9.06;96.70
71627;DHT22;59475;52.464;13.590;2023-04-01T00:20:01;9.09;96.69
71627;DHT22;59475;52.464;13.590;2023-04-01T00:22:28;9.06;96.66
71627;DHT22;59475;52.464;13.590;2023-04-01T00:24:53;9.09;96.62
71627;DHT22;59475;52.464;13.590;2023-04-01T00:27:19;9.09;96.63
71627;DHT22;59475;52.464;13.590;2023-04-01T00:29:45;9.09;96.68
71627;DHT22;59475;52.464;13.590;2023-04-01T00:32:11;9.06;96.62
71627;DHT22;59475;52.464;13.590;2023-04-01T00:34:37;9.03;96.61
71627;DHT22;59475;52.464;13.590;2023-04-01T00:37:03;9.02;96.69
71627;DHT22;59475;52.464;13.590;2023-04-01T00:39:30;8.99;96.68
71627;DHT22;59475;52.464;13.590;2023-04-01T00:41:56;9.00;96.74
71627;DHT22;59475;52.464;13.590;2023-04-01T00:44:26;9.02;96.82
71627;DHT22;59475;52.464;13.590;2023-04-01T00:46:52;9.03;96.78
71627;DHT22;59475;52.464;13.590;2023-04-01T00:49:23;9.06;96.76
71627;DHT22;59475;52.464;13.590;2023-04-01T00:51:53;9.03;96.80
71627;DHT22;59475;52.464;13.590;2023-04-01T00:54:21;9.05;96.81
71627;DHT22;59475;52.464;13.590;2023-04-01T00:57:08;9.05;96.82
71627;DHT22;59475;52.464;13.590;2023-04-01T00:59:41;9.06;96.85
71627;DHT22;59475;52.464;13.590;2023-04-01T01:02:10;9.08;96.98
71627;DHT22;59475;52.464;13.590;2023-04-01T01:04:36;9.05;97.00
71627;DHT22;59475;52.464;13.590;2023-04-01T01:09:47;9.06;97.20
71627;DHT22;59475;52.464;13.590;2023-04-01T01:12:21;9.03;97.16
71627;DHT22;59475;52.464;13.590;2023-04-01T01:15:16;9.03;97.19
71627;DHT22;59475;52.464;13.590;2023-04-01T01:26:30;9.05;97.27
71627;DHT22;59475;52.464;13.590;2023-04-01T01:37:03;9.02;97.10
71627;DHT22;59475;52.464;13.590;2023-04-01T01:39:33;9.03;97.13
71627;DHT22;59475;52.464;13.590;2023-04-01T01:42:03;9.06;97.24
71627;DHT22;59475;52.464;13.590;2023-04-01T01:44:31;9.09;97.17
71627;DHT22;59475;52.464;13.590;2023-04-01T01:46:58;9.08;97.36
71627;DHT22;59475;52.464;13.590;2023-04-01T01:49:24;9.06;97.30
71627;DHT22;59475;52.464;13.590;2023-04-01T01:51:50;9.05;97.40
71627;DHT22;59475;52.464;13.590;2023-04-01T01:54:17;9.05;97.59
71627;DHT22;59475;52.464;13.590;2023-04-01T01:56:45;9.08;97.49
71627;DHT22;59475;52.464;13.590;2023-04-01T01:59:13;9.03;97.47
71627;DHT22;59475;52.464;13.590;2023-04-01T02:01:42;9.06;97.60
71627;DHT22;59475;52.464;13.590;2023-04-01T02:04:10;9.03;97.61
71627;DHT22;59475;52.464;13.590;2023-04-01T02:06:39;9.06;97.61
71627;DHT22;59475;52.464;13.590;2023-04-01T02:09:08;9.09;97.56
71627;DHT22;59475;52.464;13.590;2023-04-01T02:11:49;9.10;97.64
71627;DHT22;59475;52.464;13.590;2023-04-01T02:14:26;9.06;97.69
71627;DHT22;59475;52.464;13.590;2023-04-01T02:16:58;9.06;97.74
71627;DHT22;59475;52.464;13.590;2023-04-01T02:20:26;9.10;97.68
71627;DHT22;59475;52.464;13.590;2023-04-01T02:22:32;9.10;97.72
71627;DHT22;59475;52.464;13.590;2023-04-01T02:25:01;9.10;97.72
71627;DHT22;59475;52.464;13.590;2023-04-01T02:27:28;9.12;97.68
71627;DHT22;59475;52.464;13.590;2023-04-01T02:29:53;9.12;97.67
71627;DHT22;59475;52.464;13.590;2023-04-01T02:32:20;9.13;97.67
71627;DHT22;59475;52.464;13.590;2023-04-01T02:34:46;9.12;97.68
71627;DHT22;59475;52.464;13.590;2023-04-01T02:37:13;9.13;97.70
71627;DHT22;59475;52.464;13.590;2023-04-01T02:39:39;9.10;97.76
71627;DHT22;59475;52.464;13.590;2023-04-01T02:42:05;9.13;97.67
71627;DHT22;59475;52.464;13.590;2023-04-01T02:44:30;9.15;97.80
71627;DHT22;59475;52.464;13.590;2023-04-01T02:46:56;9.15;97.75
71627;DHT22;59475;52.464;13.590;2023-04-01T02:49:21;9.15;97.79
71627;DHT22;59475;52.464;13.590;2023-04-01T02:51:47;9.15;97.84
71627;DHT22;59475;52.464;13.590;2023-04-01T02:54:12;9.13;97.82
71627;DHT22;59475;52.464;13.590;2023-04-01T02:56:38;9.17;97.86
71627;DHT22;59475;52.464;13.590;2023-04-01T02:59:04;9.17;97.74
71627;DHT22;59475;52.464;13.590;2023-04-01T03:01:29;9.16;97.71
71627;DHT22;59475;52.464;13.590;2023-04-01T03:03:54;9.17;97.70
71627;DHT22;59475;52.464;13.590;2023-04-01T03:06:20;9.17;97.71
71627;DHT22;59475;52.464;13.590;2023-04-01T03:08:45;9.16;97.74
71627;DHT22;59475;52.464;13.590;2023-04-01T03:11:11;9.20;97.69
71627;DHT22;59475;52.464;13.590;2023-04-01T03:13:37;9.19;97.65
71627;DHT22;59475;52.464;13.590;2023-04-01T03:16:02;9.19;97.63
71627;DHT22;59475;52.464;13.590;2023-04-01T03:18:28;9.20;97.63
71627;DHT22;59475;52.464;13.590;2023-04-01T03:20:54;9.19;97.63
71627;DHT22;59475;52.464;13.590;2023-04-01T03:23:20;9.20;97.60
71627;DHT22;59475;52.464;13.590;2023-04-01T03:25:46;9.22;97.65
71627;DHT22;59475;52.464;13.590;2023-04-01T03:28:12;9.19;97.64
71627;DHT22;59475;52.464;13.590;2023-04-01T03:30:38;9.19;97.76
71627;DHT22;59475;52.464;13.590;2023-04-01T03:33:04;9.16;97.69
71627;DHT22;59475;52.464;13.590;2023-04-01T03:35:30;9.15;97.73
71627;DHT22;59475;52.464;13.590;2023-04-01T03:37:55;9.15;97.70
71627;DHT22;59475;52.464;13.590;2023-04-01T03:40:22;9.19;97.69
71627;DHT22;59475;52.464;13.590;2023-04-01T03:42:47;9.20;97.71
71627;DHT22;59475;52.464;13.590;2023-04-01T03:45:13;9.19;97.64
71627;DHT22;59475;52.464;13.590;2023-04-01T03:47:38;9.20;97.65
71627;DHT22;59475;52.464;13.590;2023-04-01T03:50:06;9.15;97.67
71627;DHT22;59475;52.464;13.590;2023-04-01T03:52:32;9.15;97.72
71627;DHT22;59475;52.464;13.590;2023-04-01T03:54:58;9.13;97.72
71627;DHT22;59475;52.464;13.590;2023-04-01T03:57:23;9.13;97.81
71627;DHT22;59475;52.464;13.590;2023-04-01T03:59:48;9.09;97.94
71627;DHT22;59475;52.464;13.590;2023-04-01T04:02:14;9.12;97.96
71627;DHT22;59475;52.464;13.590;2023-04-01T04:04:39;9.16;97.89
71627;DHT22;59475;52.464;13.590;2023-04-01T04:07:06;9.17;97.87
71627;DHT22;59475;52.464;13.590;2023-04-01T04:09:32;9.16;97.83
71627;DHT22;59475;52.464;13.590;2023-04-01T04:11:59;9.19;97.82
71627;DHT22;59475;52.464;13.590;2023-04-01T04:14:24;9.20;97.80
71627;DHT22;59475;52.464;13.590;2023-04-01T04:16:49;9.17;97.81
71627;DHT22;59475;52.464;13.590;2023-04-01T04:19:15;9.19;97.92
71627;DHT22;59475;52.464;13.590;2023-04-01T04:21:41;9.19;97.92
71627;DHT22;59475;52.464;13.590;2023-04-01T04:24:07;9.20;97.91
71627;DHT22;59475;52.464;13.590;2023-04-01T04:26:32;9.22;97.86
71627;DHT22;59475;52.464;13.590;2023-04-01T04:28:58;9.20;97.93
71627;DHT22;59475;52.464;13.590;2023-04-01T04:31:24;9.23;97.97
71627;DHT22;59475;52.464;13.590;2023-04-01T04:33:50;9.23;97.85
71627;DHT22;59475;52.464;13.590;2023-04-01T04:36:17;9.22;97.79
71627;DHT22;59475;52.464;13.590;2023-04-01T04:38:42;9.23;97.77
71627;DHT22;59475;52.464;13.590;2023-04-01T04:41:09;9.24;97.73
71627;DHT22;59475;52.464;13.590;2023-04-01T04:43:35;9.27;97.61
71627;DHT22;59475;52.464;13.590;2023-04-01T04:46:05;9.26;97.56
71627;DHT22;59475;52.464;13.590;2023-04-01T04:48:31;9.24;97.74
71627;DHT22;59475;52.464;13.590;2023-04-01T04:50:56;9.24;97.70
71627;DHT22;59475;52.464;13.590;2023-04-01T04:53:22;9.23;97.66
71627;DHT22;59475;52.464;13.590;2023-04-01T04:55:48;9.24;97.61
71627;DHT22;59475;52.464;13.590;2023-04-01T04:58:14;9.23;97.66
71627;DHT22;59475;52.464;13.590;2023-04-01T05:00:40;9.26;97.55
71627;DHT22;59475;52.464;13.590;2023-04-01T05:03:06;9.27;97.61
71627;DHT22;59475;52.464;13.590;2023-04-01T05:05:32;9.26;97.70
71627;DHT22;59475;52.464;13.590;2023-04-01T05:07:57;9.22;97.77
71627;DHT22;59475;52.464;13.590;2023-04-01T05:10:22;9.23;97.67
71627;DHT22;59475;52.464;13.590;2023-04-01T05:12:48;9.23;97.74
71627;DHT22;59475;52.464;13.590;2023-04-01T05:15:13;9.27;97.93
71627;DHT22;59475;52.464;13.590;2023-04-01T05:17:40;9.27;97.78
71627;DHT22;59475;52.464;13.590;2023-04-01T05:20:06;9.29;97.74
71627;DHT22;59475;52.464;13.590;2023-04-01T05:22:31;9.27;97.81
71627;DHT22;59475;52.464;13.590;2023-04-01T05:24:57;9.30;97.79
71627;DHT22;59475;52.464;13.590;2023-04-01T05:27:22;9.27;97.86
71627;DHT22;59475;52.464;13.590;2023-04-01T05:29:48;9.30;97.91
71627;DHT22;59475;52.464;13.590;2023-04-01T05:32:13;9.31;97.92
71627;DHT22;59475;52.464;13.590;2023-04-01T05:34:38;9.34;97.81
71627;DHT22;59475;52.464;13.590;2023-04-01T05:37:04;9.37;97.81
71627;DHT22;59475;52.464;13.590;2023-04-01T05:39:29;9.43;97.85
71627;DHT22;59475;52.464;13.590;2023-04-01T05:41:55;9.47;97.78
71627;DHT22;59475;52.464;13.590;2023-04-01T05:44:20;9.46;97.58
71627;DHT22;59475;52.464;13.590;2023-04-01T05:46:45;9.40;97.57
71627;DHT22;59475;52.464;13.590;2023-04-01T05:49:11;9.44;97.41
71627;DHT22;59475;52.464;13.590;2023-04-01T05:51:36;9.47;97.48
71627;DHT22;59475;52.464;13.590;2023-04-01T05:54:04;9.51;97.41
71627;DHT22;59475;52.464;13.590;2023-04-01T05:56:30;9.52;97.50
71627;DHT22;59475;52.464;13.590;2023-04-01T05:58:55;9.54;97.65
71627;DHT22;59475;52.464;13.590;2023-04-01T06:01:20;9.55;97.44
71627;DHT22;59475;52.464;13.590;2023-04-01T06:03:46;9.51;97.47
71627;DHT22;59475;52.464;13.590;2023-04-01T06:06:30;9.57;97.21
71627;DHT22;59475;52.464;13.590;2023-04-01T06:09:01;9.61;97.32
71627;DHT22;59475;52.464;13.590;2023-04-01T06:11:37;9.57;97.31
71627;DHT22;59475;52.464;13.590;2023-04-01T06:30:42;9.65;97.38
71627;DHT22;59475;52.464;13.590;2023-04-01T06:38:49;9.74;97.26
71627;DHT22;59475;52.464;13.590;2023-04-01T06:46:58;9.75;97.12
71627;DHT22;59475;52.464;13.590;2023-04-01T06:49:52;9.75;97.16
71627;DHT22;59475;52.464;13.590;2023-04-01T06:55:30;9.81;96.83
71627;DHT22;59475;52.464;13.590;2023-04-01T06:57:59;9.84;96.74
71627;DHT22;59475;52.464;13.590;2023-04-01T07:00:44;9.82;96.76
71627;DHT22;59475;52.464;13.590;2023-04-01T07:05:45;9.91;96.81
71627;DHT22;59475;52.464;13.590;2023-04-01T07:08:18;9.88;96.63
71627;DHT22;59475;52.464;13.590;2023-04-01T07:11:06;9.88;96.70
71627;DHT22;59475;52.464;13.590;2023-04-01T07:13:57;9.91;96.67
71627;DHT22;59475;52.464;13.590;2023-04-01T07:16:38;9.98;96.68
71627;DHT22;59475;52.464;13.590;2023-04-01T07:21:54;9.99;96.78
71627;DHT22;59475;52.464;13.590;2023-04-01T07:24:31;10.01;96.92
71627;DHT22;59475;52.464;13.590;2023-04-01T07:26:58;10.05;96.88
71627;DHT22;59475;52.464;13.590;2023-04-01T07:29:25;10.08;96.82
71627;DHT22;59475;52.464;13.590;2023-04-01T07:34:51;10.03;96.47
71627;DHT22;59475;52.464;13.590;2023-04-01T07:37:33;10.06;96.55
71627;DHT22;59475;52.464;13.590;2023-04-01T07:40:39;10.03;96.49
71627;DHT22;59475;52.464;13.590;2023-04-01T07:45:46;10.10;97.03
71627;DHT22;59475;52.464;13.590;2023-04-01T07:50:59;10.30;97.25
71627;DHT22;59475;52.464;13.590;2023-04-01T07:54:09;10.34;96.49
71627;DHT22;59475;52.464;13.590;2023-04-01T08:07:39;10.60;96.33
71627;DHT22;59475;52.464;13.590;2023-04-01T08:10:36;10.71;96.54
71627;DHT22;59475;52.464;13.590;2023-04-01T08:21:35;10.81;95.50
71627;DHT22;59475;52.464;13.590;2023-04-01T08:26:57;10.81;95.14
71627;DHT22;59475;52.464;13.590;2023-04-01T08:30:02;10.58;93.73
71627;DHT22;59475;52.464;13.590;2023-04-01T08:32:36;10.19;93.96
71627;DHT22;59475;52.464;13.590;2023-04-01T08:35:26;9.81;94.98
71627;DHT22;59475;52.464;13.590;2023-04-01T08:37:56;9.59;95.82
71627;DHT22;59475;52.464;13.590;2023-04-01T08:41:05;9.51;95.98
71627;DHT22;59475;52.464;13.590;2023-04-01T08:51:48;9.36;97.39
71627;DHT22;59475;52.464;13.590;2023-04-01T09:11:59;9.44;97.20
71627;DHT22;59475;52.464;13.590;2023-04-01T09:17:42;9.51;97.08
71627;DHT22;59475;52.464;13.590;2023-04-01T09:22:56;9.62;96.59
71627;DHT22;59475;52.464;13.590;2023-04-01T09:25:31;9.64;96.85
71627;DHT22;59475;52.464;13.590;2023-04-01T09:28:16;9.61;96.27
71627;DHT22;59475;52.464;13.590;2023-04-01T09:33:39;9.57;96.14
71627;DHT22;59475;52.464;13.590;2023-04-01T09:44:59;9.68;96.33
71627;DHT22;59475;52.464;13.590;2023-04-01T10:19:04;9.55;96.70
71627;DHT22;59475;52.464;13.590;2023-04-01T10:36:00;9.38;95.60
71627;DHT22;59475;52.464;13.590;2023-04-01T10:41:39;9.29;96.77
71627;DHT22;59475;52.464;13.590;2023-04-01T10:55:27;9.19;95.57
71627;DHT22;59475;52.464;13.590;2023-04-01T11:01:22;9.13;95.96
71627;DHT22;59475;52.464;13.590;2023-04-01T11:14:59;9.16;96.80
71627;DHT22;59475;52.464;13.590;2023-04-01T11:20:35;9.12;95.97
71627;DHT22;59475;52.464;13.590;2023-04-01T11:23:25;9.12;95.74
71627;DHT22;59475;52.464;13.590;2023-04-01T11:26:16;9.05;95.51
71627;DHT22;59475;52.464;13.590;2023-04-01T11:40:14;8.93;95.40
71627;DHT22;59475;52.464;13.590;2023-04-01T11:46:33;8.93;95.37
71627;DHT22;59475;52.464;13.590;2023-04-01T11:52:06;8.83;95.35
71627;DHT22;59475;52.464;13.590;2023-04-01T12:00:32;8.93;95.71
71627;DHT22;59475;52.464;13.590;2023-04-01T12:03:26;8.91;95.37
71627;DHT22;59475;52.464;13.590;2023-04-01T12:06:02;8.88;95.52
71627;DHT22;59475;52.464;13.590;2023-04-01T12:14:27;8.61;95.07
71627;DHT22;59475;52.464;13.590;2023-04-01T12:17:03;8.57;96.15
71627;DHT22;59475;52.464;13.590;2023-04-01T12:19:48;8.57;95.42
71627;DHT22;59475;52.464;13.590;2023-04-01T12:28:54;8.54;95.02
71627;DHT22;59475;52.464;13.590;2023-04-01T12:31:03;8.54;94.84
71627;DHT22;59475;52.464;13.590;2023-04-01T12:33:50;8.45;94.66
71627;DHT22;59475;52.464;13.590;2023-04-01T12:41:59;8.44;94.87
71627;DHT22;59475;52.464;13.590;2023-04-01T12:45:04;8.40;95.27
71627;DHT22;59475;52.464;13.590;2023-04-01T12:55:52;8.13;95.09
71627;DHT22;59475;52.464;13.590;2023-04-01T12:58:30;8.12;95.10
71627;DHT22;59475;52.464;13.590;2023-04-01T13:07:10;8.24;95.22
71627;DHT22;59475;52.464;13.590;2023-04-01T13:09:56;8.16;94.58
71627;DHT22;59475;52.464;13.590;2023-04-01T13:12:36;8.14;94.74
71627;DHT22;59475;52.464;13.590;2023-04-01T13:15:23;8.12;95.01
71627;DHT22;59475;52.464;13.590;2023-04-01T13:20:35;8.20;94.99
71627;DHT22;59475;52.464;13.590;2023-04-01T13:28:24;8.17;94.73
71627;DHT22;59475;52.464;13.590;2023-04-01T13:39:42;8.22;94.64
71627;DHT22;59475;52.464;13.590;2023-04-01T13:45:19;8.07;94.70
71627;DHT22;59475;52.464;13.590;2023-04-01T13:56:04;8.03;94.88
71627;DHT22;59475;52.464;13.590;2023-04-01T13:58:43;8.02;93.86
71627;DHT22;59475;52.464;13.590;2023-04-01T14:12:21;7.86;94.35
71627;DHT22;59475;52.464;13.590;2023-04-01T14:15:20;7.89;94.50
71627;DHT22;59475;52.464;13.590;2023-04-01T14:20:36;7.89;95.57
71627;DHT22;59475;52.464;13.590;2023-04-01T14:28:41;7.74;94.85
71627;DHT22;59475;52.464;13.590;2023-04-01T14:31:51;7.62;95.48
71627;DHT22;59475;52.464;13.590;2023-04-01T14:42:31;7.38;94.18
71627;DHT22;59475;52.464;13.590;2023-04-01T14:48:48;7.32;94.53
71627;DHT22;59475;52.464;13.590;2023-04-01T14:56:46;7.27;95.29
71627;DHT22;59475;52.464;13.590;2023-04-01T15:08:03;7.16;95.33
71627;DHT22;59475;52.464;13.590;2023-04-01T15:16:34;7.23;95.06
71627;DHT22;59475;52.464;13.590;2023-04-01T15:19:23;7.20;95.10
71627;DHT22;59475;52.464;13.590;2023-04-01T15:30:28;7.19;95.24
71627;DHT22;59475;52.464;13.590;2023-04-01T15:40:49;7.13;94.74
71627;DHT22;59475;52.464;13.590;2023-04-01T15:57:29;6.92;94.70
71627;DHT22;59475;52.464;13.590;2023-04-01T16:02:49;6.91;94.75
71627;DHT22;59475;52.464;13.590;2023-04-01T16:10:47;6.86;94.16
71627;DHT22;59475;52.464;13.590;2023-04-01T16:16:17;6.81;93.47
71627;DHT22;59475;52.464;13.590;2023-04-01T16:21:42;6.78;94.04
71627;DHT22;59475;52.464;13.590;2023-04-01T16:24:20;6.74;94.04
71627;DHT22;59475;52.464;13.590;2023-04-01T16:26:54;6.59;93.56
71627;DHT22;59475;52.464;13.590;2023-04-01T16:32:58;6.55;93.44
71627;DHT22;59475;52.464;13.590;2023-04-01T16:35:40;6.56;94.31
71627;DHT22;59475;52.464;13.590;2023-04-01T16:38:36;6.51;93.51
71627;DHT22;59475;52.464;13.590;2023-04-01T16:43:53;6.56;94.05
71627;DHT22;59475;52.464;13.590;2023-04-01T17:03:03;6.31;93.24
71627;DHT22;59475;52.464;13.590;2023-04-01T17:08:08;6.16;93.64
71627;DHT22;59475;52.464;13.590;2023-04-01T17:16:43;6.06;93.85
71627;DHT22;59475;52.464;13.590;2023-04-01T17:19:25;6.03;93.79
71627;DHT22;59475;52.464;13.590;2023-04-01T17:23:14;5.95;93.74
71627;DHT22;59475;52.464;13.590;2023-04-01T17:45:07;5.68;94.99
71627;DHT22;59475;52.464;13.590;2023-04-01T17:47:40;5.69;94.50
71627;DHT22;59475;52.464;13.590;2023-04-01T17:50:24;5.66;95.26
71627;DHT22;59475;52.464;13.590;2023-04-01T18:03:55;5.58;95.09
71627;DHT22;59475;52.464;13.590;2023-04-01T18:09:06;5.38;94.17
71627;DHT22;59475;52.464;13.590;2023-04-01T18:17:42;5.27;94.81
71627;DHT22;59475;52.464;13.590;2023-04-01T18:20:40;5.26;95.18
71627;DHT22;59475;52.464;13.590;2023-04-01T18:26:20;5.22;94.48
71627;DHT22;59475;52.464;13.590;2023-04-01T18:28:57;5.20;94.08
71627;DHT22;59475;52.464;13.590;2023-04-01T18:31:32;5.23;94.49
71627;DHT22;59475;52.464;13.590;2023-04-01T18:36:55;5.12;94.33
71627;DHT22;59475;52.464;13.590;2023-04-01T18:39:41;5.12;93.97
71627;DHT22;59475;52.464;13.590;2023-04-01T18:42:44;5.06;93.94
71627;DHT22;59475;52.464;13.590;2023-04-01T18:47:55;5.00;93.77
71627;DHT22;59475;52.464;13.590;2023-04-01T18:50:43;5.00;94.07
71627;DHT22;59475;52.464;13.590;2023-04-01T18:54:24;4.99;94.10
71627;DHT22;59475;52.464;13.590;2023-04-01T18:56:29;4.93;93.91
71627;DHT22;59475;52.464;13.590;2023-04-01T18:59:01;4.93;94.23
71627;DHT22;59475;52.464;13.590;2023-04-01T19:07:45;4.92;94.67
71627;DHT22;59475;52.464;13.590;2023-04-01T19:19:06;4.80;94.26
71627;DHT22;59475;52.464;13.590;2023-04-01T19:21:41;4.76;93.83
71627;DHT22;59475;52.464;13.590;2023-04-01T19:29:53;4.71;94.04
71627;DHT22;59475;52.464;13.590;2023-04-01T19:42:58;4.59;94.15
71627;DHT22;59475;52.464;13.590;2023-04-01T19:45:38;4.58;93.88
71627;DHT22;59475;52.464;13.590;2023-04-01T19:53:40;4.52;93.68
71627;DHT22;59475;52.464;13.590;2023-04-01T20:01:15;4.38;93.16
71627;DHT22;59475;52.464;13.590;2023-04-01T20:06:36;4.30;93.63
71627;DHT22;59475;52.464;13.590;2023-04-01T20:20:18;4.22;93.02
71627;DHT22;59475;52.464;13.590;2023-04-01T20:27:53;4.18;93.41
71627;DHT22;59475;52.464;13.590;2023-04-01T20:36:14;4.14;93.68
71627;DHT22;59475;52.464;13.590;2023-04-01T20:38:51;4.14;94.11
71627;DHT22;59475;52.464;13.590;2023-04-01T20:41:33;4.09;93.10
71627;DHT22;59475;52.464;13.590;2023-04-01T20:44:18;4.07;93.34
71627;DHT22;59475;52.464;13.590;2023-04-01T20:47:15;4.06;92.95
71627;DHT22;59475;52.464;13.590;2023-04-01T20:50:00;3.96;93.18
71627;DHT22;59475;52.464;13.590;2023-04-01T20:55:26;3.92;93.78
71627;DHT22;59475;52.464;13.590;2023-04-01T21:20:22;3.68;93.88
71627;DHT22;59475;52.464;13.590;2023-04-01T21:31:46;3.66;94.47
71627;DHT22;59475;52.464;13.590;2023-04-01T21:34:28;3.66;94.00
71627;DHT22;59475;52.464;13.590;2023-04-01T21:45:24;3.59;93.87
71627;DHT22;59475;52.464;13.590;2023-04-01T21:48:23;3.59;94.17
71627;DHT22;59475;52.464;13.590;2023-04-01T21:51:17;3.58;94.05
71627;DHT22;59475;52.464;13.590;2023-04-01T21:57:27;3.58;93.52
71627;DHT22;59475;52.464;13.590;2023-04-01T22:05:28;3.52;93.97
71627;DHT22;59475;52.464;13.590;2023-04-01T22:13:06;3.52;92.70
71627;DHT22;59475;52.464;13.590;2023-04-01T22:16:20;3.45;92.94
71627;DHT22;59475;52.464;13.590;2023-04-01T22:30:11;3.44;92.01
71627;DHT22;59475;52.464;13.590;2023-04-01T22:32:45;3.44;91.44
71627;DHT22;59475;52.464;13.590;2023-04-01T22:43:12;3.42;91.63
71627;DHT22;59475;52.464;13.590;2023-04-01T22:51:18;3.42;91.01
71627;DHT22;59475;52.464;13.590;2023-04-01T22:56:33;3.42;90.98
71627;DHT22;59475;52.464;13.590;2023-04-01T23:01:43;3.37;90.83
71627;DHT22;59475;52.464;13.590;2023-04-01T23:04:14;3.38;90.71
71627;DHT22;59475;52.464;13.590;2023-04-01T23:06:44;3.37;90.41
71627;DHT22;59475;52.464;13.590;2023-04-01T23:09:18;3.37;90.37
71627;DHT22;59475;52.464;13.590;2023-04-01T23:14:47;3.38;90.70
71627;DHT22;59475;52.464;13.590;2023-04-01T23:17:34;3.38;90.16
71627;DHT22;59475;52.464;13.590;2023-04-01T23:22:56;3.37;89.93
71627;DHT22;59475;52.464;13.590;2023-04-01T23:28:23;3.35;89.87
71627;DHT22;59475;52.464;13.590;2023-04-01T23:30:52;3.34;89.83
71627;DHT22;59475;52.464;13.590;2023-04-01T23:33:30;3.30;89.70
71627;DHT22;59475;52.464;13.590;2023-04-01T23:36:10;3.30;89.56
71627;DHT22;59475;52.464;13.590;2023-04-01T23:38:38;3.32;89.04
71627;DHT22;59475;52.464;13.590;2023-04-01T23:41:05;3.28;89.59
71627;DHT22;59475;52.464;13.590;2023-04-01T23:43:35;3.27;89.20
71627;DHT22;59475;52.464;13.590;2023-04-01T23:46:03;3.28;89.58
71627;DHT22;59475;52.464;13.590;2023-04-01T23:48:41;3.23;88.93
71627;DHT22;59475;52.464;13.590;2023-04-01T23:51:28;3.26;89.59
71627;DHT22;59475;52.464;13.590;2023-04-01T23:54:10;3.24;89.13
71627;DHT22;59475;52.464;13.590;2023-04-01T23:56:42;3.21;88.85
71627;DHT22;59475;52.464;13.590;2023-04-01T23:59:29;3.20;88.48
